createdAt,value
2023-03-15T04:39:52.357Z,0.80
2023-03-15T04:50:38.451Z,0.80
2023-03-15T05:01:33.059Z,1.00
2023-03-15T05:12:37.398Z,1.00
2023-03-15T05:23:33.825Z,1.30
2023-03-15T05:34:19.848Z,1.40
2023-03-15T05:45:10.772Z,1.40
2023-03-15T05:55:57.577Z,1.50
2023-03-15T06:06:59.628Z,1.60
2023-03-15T06:17:35.972Z,1.60
2023-03-15T06:28:12.438Z,1.70
2023-03-15T06:38:54.438Z,1.80
2023-03-15T06:49:30.858Z,1.90
2023-03-15T07:00:11.387Z,1.90
2023-03-15T07:10:26.751Z,1.90
2023-03-15T07:20:42.139Z,2.00
2023-03-15T07:31:00.285Z,1.90
2023-03-15T07:41:16.230Z,1.80
2023-03-15T07:51:43.951Z,1.60
2023-03-15T08:02:02.384Z,1.60
2023-03-15T08:12:18.947Z,1.90
2023-03-15T08:22:34.227Z,1.90
2023-03-15T08:32:52.480Z,2.00
2023-03-15T08:43:08.307Z,2.10
2023-03-15T08:53:23.882Z,1.90
2023-03-15T09:03:39.504Z,1.60
2023-03-15T09:13:55.669Z,1.70
2023-03-15T09:24:11.088Z,1.80
2023-03-15T09:34:27.542Z,1.90
2023-03-15T09:44:50.434Z,1.90
2023-03-15T09:55:09.108Z,1.90
2023-03-15T10:05:37.282Z,2.20
2023-03-15T10:16:27.001Z,2.90
2023-03-15T10:37:06.258Z,3.10
2023-03-15T10:47:24.761Z,3.60
2023-03-15T10:57:51.336Z,3.40
2023-03-15T11:08:12.765Z,3.80
2023-03-15T11:18:33.418Z,3.70
2023-03-15T11:28:53.542Z,3.20
2023-03-15T11:39:15.155Z,3.50
2023-03-15T11:49:48.578Z,3.50
2023-03-15T12:00:22.188Z,4.40
2023-03-15T12:10:46.665Z,5.00
2023-03-15T12:21:09.681Z,4.80
2023-03-15T12:31:25.689Z,4.50
2023-03-15T12:41:46.773Z,4.80
2023-03-15T12:52:11.774Z,5.70
2023-03-15T13:02:56.411Z,6.80
2023-03-15T13:13:25.611Z,6.60
2023-03-15T13:23:48.827Z,7.50
2023-03-15T13:34:19.176Z,6.70
2023-03-15T13:44:34.891Z,6.60
2023-03-15T13:54:53.804Z,6.90
2023-03-15T14:05:14.042Z,7.10
2023-03-15T14:15:30.184Z,7.00
2023-03-15T14:26:01.601Z,7.20
2023-03-15T14:36:32.734Z,7.30
2023-03-15T14:46:50.791Z,6.80
2023-03-15T14:57:06.600Z,6.80
2023-03-15T15:07:23.422Z,7.20
2023-03-15T15:17:38.745Z,7.20
2023-03-15T15:27:54.699Z,7.30
2023-03-15T15:38:12.277Z,7.30
2023-03-15T15:48:28.119Z,7.10
2023-03-15T15:58:45.203Z,7.20
2023-03-15T16:09:02.905Z,6.70
2023-03-15T16:19:19.014Z,6.60
2023-03-15T16:29:55.805Z,6.50
2023-03-15T16:40:39.232Z,6.40
2023-03-15T16:51:16.079Z,6.20
2023-03-15T17:01:51.670Z,5.90
2023-03-15T17:12:29.457Z,5.60
2023-03-15T17:23:05.403Z,5.20
2023-03-15T17:33:41.549Z,4.70
2023-03-15T17:44:16.799Z,4.30
2023-03-15T17:54:52.266Z,4.10
2023-03-15T18:05:29.674Z,3.80
2023-03-15T18:16:05.791Z,3.50
2023-03-15T18:26:41.322Z,3.10
2023-03-15T18:37:17.157Z,2.90
2023-03-15T18:47:52.963Z,2.70
2023-03-15T18:58:28.645Z,2.40
2023-03-15T19:09:05.382Z,2.20
2023-03-15T19:19:41.087Z,2.20
2023-03-15T19:30:20.821Z,2.10
2023-03-15T19:40:58.485Z,1.90
2023-03-15T19:51:33.843Z,1.80
2023-03-15T20:02:10.955Z,1.60
2023-03-15T20:12:47.278Z,1.70
2023-03-15T20:23:23.116Z,1.40
2023-03-15T20:33:58.986Z,1.40
2023-03-15T20:44:34.907Z,1.20
2023-03-15T20:55:12.279Z,1.20
2023-03-15T21:05:47.735Z,1.10
2023-03-15T21:16:26.001Z,1.00
2023-03-15T21:27:09.404Z,1.00
2023-03-15T21:37:45.402Z,0.90
2023-03-15T21:48:20.788Z,0.70
2023-03-15T21:58:56.421Z,0.70
2023-03-15T22:09:31.851Z,0.50
2023-03-15T22:20:10.204Z,0.50
